sensor_id;sensor_type;location;lat;lon;timestamp;pressure;altitude;pressure_sealevel;temperature;humidity
4972;BME280;2501;51.214;6.768;2024-02-28T00:00:29;101770.09;;;2.25;100.00
4972;BME280;2501;51.214;6.768;2024-02-28T00:02:58;101776.78;;;2.52;100.00
4972;BME280;2501;51.214;6.768;2024-02-28T00:05:26;101777.03;;;2.26;100.00
4972;BME280;2501;51.214;6.768;2024-02-28T00:07:55;101776.06;;;2.55;100.00
4972;BME280;2501;51.214;6.768;2024-02-28T00:10:23;101779.03;;;2.46;100.00
4972;BME280;2501;51.214;6.768;2024-02-28T00:12:52;101788.31;;;2.42;100.00
4972;BME280;2501;51.214;6.768;2024-02-28T00:15:23;101775.88;;;2.52;100.00
4972;BME280;2501;51.214;6.768;2024-02-28T00:17:52;101780.09;;;2.66;100.00
4972;BME280;2501;51.214;6.768;2024-02-28T00:20:20;101773.16;;;2.81;100.00
4972;BME280;2501;51.214;6.768;2024-02-28T00:22:52;101771.00;;;2.89;100.00
4972;BME280;2501;51.214;6.768;2024-02-28T00:25:20;101774.38;;;3.04;100.00
4972;BME280;2501;51.214;6.768;2024-02-28T00:27:49;101771.06;;;2.90;100.00
4972;BME280;2501;51.214;6.768;2024-02-28T00:30:17;101766.59;;;3.04;100.00
4972;BME280;2501;51.214;6.768;2024-02-28T00:32:48;101766.03;;;3.09;100.00
4972;BME280;2501;51.214;6.768;2024-02-28T00:35:17;101757.38;;;3.09;100.00
4972;BME280;2501;51.214;6.768;2024-02-28T00:37:45;101764.56;;;2.66;100.00
4972;BME280;2501;51.214;6.768;2024-02-28T00:40:14;101759.81;;;2.90;100.00
4972;BME280;2501;51.214;6.768;2024-02-28T00:42:42;101755.59;;;2.28;100.00
4972;BME280;2501;51.214;6.768;2024-02-28T00:45:11;101760.03;;;2.15;100.00
4972;BME280;2501;51.214;6.768;2024-02-28T00:47:39;101758.53;;;2.03;100.00
4972;BME280;2501;51.214;6.768;2024-02-28T00:50:10;101766.53;;;2.08;100.00
4972;BME280;2501;51.214;6.768;2024-02-28T00:52:40;101763.81;;;2.05;100.00
4972;BME280;2501;51.214;6.768;2024-02-28T00:55:08;101761.59;;;1.96;100.00
4972;BME280;2501;51.214;6.768;2024-02-28T00:57:37;101752.50;;;1.88;100.00
4972;BME280;2501;51.214;6.768;2024-02-28T01:00:06;101758.38;;;2.00;100.00
4972;BME280;2501;51.214;6.768;2024-02-28T01:02:36;101762.56;;;1.98;100.00
4972;BME280;2501;51.214;6.768;2024-02-28T01:05:05;101761.84;;;2.01;100.00
4972;BME280;2501;51.214;6.768;2024-02-28T01:07:36;101759.19;;;1.99;100.00
4972;BME280;2501;51.214;6.768;2024-02-28T01:10:06;101767.13;;;2.02;100.00
4972;BME280;2501;51.214;6.768;2024-02-28T01:12:35;101770.59;;;2.03;100.00
4972;BME280;2501;51.214;6.768;2024-02-28T01:15:04;101778.28;;;2.01;100.00
4972;BME280;2501;51.214;6.768;2024-02-28T01:17:33;101762.75;;;2.01;100.00
4972;BME280;2501;51.214;6.768;2024-02-28T01:20:02;101770.94;;;1.94;100.00
4972;BME280;2501;51.214;6.768;2024-02-28T01:22:30;101775.31;;;1.95;100.00
4972;BME280;2501;51.214;6.768;2024-02-28T01:25:02;101780.75;;;2.00;100.00
4972;BME280;2501;51.214;6.768;2024-02-28T01:27:31;101782.63;;;2.02;100.00
4972;BME280;2501;51.214;6.768;2024-02-28T01:30:00;101781.94;;;2.05;100.00
4972;BME280;2501;51.214;6.768;2024-02-28T01:32:29;101777.88;;;2.10;100.00
4972;BME280;2501;51.214;6.768;2024-02-28T01:34:58;101787.59;;;2.14;100.00
4972;BME280;2501;51.214;6.768;2024-02-28T01:37:26;101788.59;;;2.16;100.00
4972;BME280;2501;51.214;6.768;2024-02-28T01:39:55;101783.94;;;2.10;100.00
4972;BME280;2501;51.214;6.768;2024-02-28T01:42:26;101778.94;;;2.14;100.00
4972;BME280;2501;51.214;6.768;2024-02-28T01:44:55;101781.53;;;2.14;100.00
4972;BME280;2501;51.214;6.768;2024-02-28T01:47:24;101779.22;;;2.18;100.00
4972;BME280;2501;51.214;6.768;2024-02-28T01:49:53;101782.25;;;2.11;100.00
4972;BME280;2501;51.214;6.768;2024-02-28T01:52:21;101771.72;;;2.08;100.00
4972;BME280;2501;51.214;6.768;2024-02-28T01:54:50;101766.41;;;2.05;100.00
4972;BME280;2501;51.214;6.768;2024-02-28T01:57:18;101765.69;;;2.07;100.00
4972;BME280;2501;51.214;6.768;2024-02-28T01:59:50;101771.34;;;2.17;100.00
4972;BME280;2501;51.214;6.768;2024-02-28T02:02:20;101762.88;;;2.19;100.00
4972;BME280;2501;51.214;6.768;2024-02-28T02:04:48;101754.56;;;2.25;100.00
4972;BME280;2501;51.214;6.768;2024-02-28T02:07:18;101756.00;;;2.20;100.00
4972;BME280;2501;51.214;6.768;2024-02-28T02:09:46;101765.63;;;2.22;100.00
4972;BME280;2501;51.214;6.768;2024-02-28T02:12:15;101756.72;;;2.17;100.00
4972;BME280;2501;51.214;6.768;2024-02-28T02:14:49;101756.63;;;2.16;100.00
4972;BME280;2501;51.214;6.768;2024-02-28T02:17:18;101761.63;;;2.13;100.00
4972;BME280;2501;51.214;6.768;2024-02-28T02:19:46;101756.47;;;2.13;100.00
4972;BME280;2501;51.214;6.768;2024-02-28T02:22:15;101766.00;;;2.14;100.00
4972;BME280;2501;51.214;6.768;2024-02-28T02:24:47;101764.13;;;2.11;100.00
4972;BME280;2501;51.214;6.768;2024-02-28T02:27:16;101757.84;;;2.06;100.00
4972;BME280;2501;51.214;6.768;2024-02-28T02:29:44;101762.63;;;2.15;100.00
4972;BME280;2501;51.214;6.768;2024-02-28T02:32:13;101771.09;;;2.12;100.00
4972;BME280;2501;51.214;6.768;2024-02-28T02:34:41;101764.94;;;2.10;100.00
4972;BME280;2501;51.214;6.768;2024-02-28T02:37:10;101764.03;;;2.09;100.00
4972;BME280;2501;51.214;6.768;2024-02-28T02:39:38;101768.41;;;2.10;100.00
4972;BME280;2501;51.214;6.768;2024-02-28T02:42:09;101771.97;;;2.13;100.00
4972;BME280;2501;51.214;6.768;2024-02-28T02:44:39;101779.13;;;2.17;100.00
4972;BME280;2501;51.214;6.768;2024-02-28T02:47:07;101775.66;;;2.16;100.00
4972;BME280;2501;51.214;6.768;2024-02-28T02:49:35;101778.16;;;2.15;100.00
4972;BME280;2501;51.214;6.768;2024-02-28T02:52:05;101783.66;;;2.21;100.00
4972;BME280;2501;51.214;6.768;2024-02-28T02:54:33;101781.72;;;2.17;100.00
4972;BME280;2501;51.214;6.768;2024-02-28T02:57:02;101790.28;;;2.16;100.00
4972;BME280;2501;51.214;6.768;2024-02-28T02:59:33;101787.06;;;2.20;100.00
4972;BME280;2501;51.214;6.768;2024-02-28T03:02:02;101781.53;;;2.14;100.00
4972;BME280;2501;51.214;6.768;2024-02-28T03:04:30;101786.63;;;2.12;100.00
4972;BME280;2501;51.214;6.768;2024-02-28T03:06:58;101788.41;;;2.13;100.00
4972;BME280;2501;51.214;6.768;2024-02-28T03:09:27;101791.34;;;2.19;100.00
4972;BME280;2501;51.214;6.768;2024-02-28T03:11:55;101803.41;;;2.19;100.00
4972;BME280;2501;51.214;6.768;2024-02-28T03:14:24;101801.69;;;2.19;100.00
4972;BME280;2501;51.214;6.768;2024-02-28T03:16:55;101800.72;;;2.17;100.00
4972;BME280;2501;51.214;6.768;2024-02-28T03:19:23;101800.00;;;2.20;100.00
4972;BME280;2501;51.214;6.768;2024-02-28T03:21:52;101795.81;;;2.22;100.00
4972;BME280;2501;51.214;6.768;2024-02-28T03:24:20;101793.75;;;2.16;100.00
4972;BME280;2501;51.214;6.768;2024-02-28T03:26:49;101800.09;;;2.21;100.00
4972;BME280;2501;51.214;6.768;2024-02-28T03:29:17;101809.06;;;2.28;100.00
4972;BME280;2501;51.214;6.768;2024-02-28T03:31:46;101803.19;;;2.30;100.00
4972;BME280;2501;51.214;6.768;2024-02-28T03:34:17;101811.03;;;2.32;100.00
4972;BME280;2501;51.214;6.768;2024-02-28T03:36:45;101798.72;;;2.28;100.00
4972;BME280;2501;51.214;6.768;2024-02-28T03:39:14;101800.81;;;2.19;100.00
4972;BME280;2501;51.214;6.768;2024-02-28T03:41:42;101797.59;;;2.08;100.00
4972;BME280;2501;51.214;6.768;2024-02-28T03:44:11;101796.44;;;2.18;100.00
4972;BME280;2501;51.214;6.768;2024-02-28T03:46:39;101805.19;;;2.20;100.00
4972;BME280;2501;51.214;6.768;2024-02-28T03:49:08;101802.69;;;2.21;100.00
4972;BME280;2501;51.214;6.768;2024-02-28T03:51:41;101803.03;;;2.13;100.00
4972;BME280;2501;51.214;6.768;2024-02-28T03:54:10;101810.69;;;2.26;100.00
4972;BME280;2501;51.214;6.768;2024-02-28T03:56:38;101816.50;;;2.22;100.00
4972;BME280;2501;51.214;6.768;2024-02-28T03:59:07;101826.88;;;2.22;100.00
4972;BME280;2501;51.214;6.768;2024-02-28T04:01:35;101832.84;;;2.21;100.00
4972;BME280;2501;51.214;6.768;2024-02-28T04:04:03;101823.81;;;2.29;100.00
4972;BME280;2501;51.214;6.768;2024-02-28T04:06:32;101827.72;;;2.37;100.00
4972;BME280;2501;51.214;6.768;2024-02-28T04:09:03;101823.94;;;2.47;100.00
4972;BME280;2501;51.214;6.768;2024-02-28T04:11:32;101822.94;;;2.44;100.00
4972;BME280;2501;51.214;6.768;2024-02-28T04:14:01;101829.13;;;2.47;100.00
4972;BME280;2501;51.214;6.768;2024-02-28T04:16:29;101833.03;;;2.55;100.00
4972;BME280;2501;51.214;6.768;2024-02-28T04:18:58;101830.59;;;2.41;100.00
4972;BME280;2501;51.214;6.768;2024-02-28T04:21:26;101827.75;;;2.53;100.00
4972;BME280;2501;51.214;6.768;2024-02-28T04:23:54;101830.63;;;2.43;100.00
4972;BME280;2501;51.214;6.768;2024-02-28T04:26:25;101835.75;;;2.41;100.00
4972;BME280;2501;51.214;6.768;2024-02-28T04:28:54;101824.03;;;2.48;100.00
4972;BME280;2501;51.214;6.768;2024-02-28T04:31:24;101828.66;;;2.54;100.00
4972;BME280;2501;51.214;6.768;2024-02-28T04:33:53;101822.25;;;2.47;100.00
4972;BME280;2501;51.214;6.768;2024-02-28T04:36:21;101820.97;;;2.55;100.00
4972;BME280;2501;51.214;6.768;2024-02-28T04:38:49;101828.03;;;2.58;100.00
4972;BME280;2501;51.214;6.768;2024-02-28T04:41:18;101825.25;;;2.55;100.00
4972;BME280;2501;51.214;6.768;2024-02-28T04:43:49;101828.16;;;2.61;100.00
4972;BME280;2501;51.214;6.768;2024-02-28T04:46:17;101830.84;;;2.62;100.00
4972;BME280;2501;51.214;6.768;2024-02-28T04:48:46;101836.91;;;2.32;100.00
4972;BME280;2501;51.214;6.768;2024-02-28T04:51:15;101838.00;;;2.35;100.00
4972;BME280;2501;51.214;6.768;2024-02-28T04:53:44;101848.34;;;2.66;100.00
4972;BME280;2501;51.214;6.768;2024-02-28T04:56:13;101845.53;;;2.47;100.00
4972;BME280;2501;51.214;6.768;2024-02-28T04:58:41;101851.84;;;2.21;100.00
4972;BME280;2501;51.214;6.768;2024-02-28T05:01:12;101853.03;;;1.97;100.00
4972;BME280;2501;51.214;6.768;2024-02-28T05:03:41;101865.78;;;1.94;100.00
4972;BME280;2501;51.214;6.768;2024-02-28T05:06:09;101856.09;;;1.90;100.00
4972;BME280;2501;51.214;6.768;2024-02-28T05:08:38;101861.41;;;1.93;100.00
4972;BME280;2501;51.214;6.768;2024-02-28T05:11:06;101874.53;;;1.96;100.00
4972;BME280;2501;51.214;6.768;2024-02-28T05:13:35;101872.13;;;1.84;100.00
4972;BME280;2501;51.214;6.768;2024-02-28T05:16:04;101869.72;;;1.87;100.00
4972;BME280;2501;51.214;6.768;2024-02-28T05:18:35;101862.59;;;1.83;100.00
4972;BME280;2501;51.214;6.768;2024-02-28T05:21:04;101862.78;;;1.86;100.00
4972;BME280;2501;51.214;6.768;2024-02-28T05:23:32;101864.88;;;1.79;100.00
4972;BME280;2501;51.214;6.768;2024-02-28T05:26:01;101870.88;;;1.78;100.00
4972;BME280;2501;51.214;6.768;2024-02-28T05:28:31;101868.09;;;1.74;100.00
4972;BME280;2501;51.214;6.768;2024-02-28T05:31:02;101872.84;;;1.67;100.00
4972;BME280;2501;51.214;6.768;2024-02-28T05:33:30;101873.63;;;1.81;100.00
4972;BME280;2501;51.214;6.768;2024-02-28T05:36:02;101871.84;;;1.94;100.00
4972;BME280;2501;51.214;6.768;2024-02-28T05:38:30;101875.78;;;1.88;100.00
4972;BME280;2501;51.214;6.768;2024-02-28T05:40:59;101882.75;;;1.89;100.00
4972;BME280;2501;51.214;6.768;2024-02-28T05:43:27;101886.16;;;1.88;100.00
4972;BME280;2501;51.214;6.768;2024-02-28T05:45:56;101889.91;;;2.07;100.00
4972;BME280;2501;51.214;6.768;2024-02-28T05:48:24;101892.72;;;2.12;100.00
4972;BME280;2501;51.214;6.768;2024-02-28T05:50:53;101889.72;;;2.04;100.00
4972;BME280;2501;51.214;6.768;2024-02-28T05:53:24;101899.00;;;2.01;100.00
4972;BME280;2501;51.214;6.768;2024-02-28T05:55:53;101898.91;;;1.99;100.00
4972;BME280;2501;51.214;6.768;2024-02-28T05:58:22;101902.84;;;2.07;100.00
4972;BME280;2501;51.214;6.768;2024-02-28T06:00:50;101903.00;;;2.10;100.00
4972;BME280;2501;51.214;6.768;2024-02-28T06:03:19;101901.75;;;2.19;100.00
4972;BME280;2501;51.214;6.768;2024-02-28T06:05:47;101906.13;;;2.20;100.00
4972;BME280;2501;51.214;6.768;2024-02-28T06:08:16;101915.22;;;2.28;100.00
4972;BME280;2501;51.214;6.768;2024-02-28T06:10:47;101920.75;;;2.19;100.00
4972;BME280;2501;51.214;6.768;2024-02-28T06:13:17;101918.97;;;2.18;100.00
4972;BME280;2501;51.214;6.768;2024-02-28T06:15:46;101913.63;;;2.15;100.00
4972;BME280;2501;51.214;6.768;2024-02-28T06:18:14;101918.09;;;2.18;100.00
4972;BME280;2501;51.214;6.768;2024-02-28T06:20:43;101918.69;;;2.14;100.00
4972;BME280;2501;51.214;6.768;2024-02-28T06:23:11;101925.03;;;2.04;100.00
4972;BME280;2501;51.214;6.768;2024-02-28T06:25:40;101926.94;;;2.06;100.00
4972;BME280;2501;51.214;6.768;2024-02-28T06:28:11;101930.22;;;2.04;100.00
4972;BME280;2501;51.214;6.768;2024-02-28T06:30:39;101925.38;;;2.10;100.00
4972;BME280;2501;51.214;6.768;2024-02-28T06:33:08;101932.91;;;2.20;100.00
4972;BME280;2501;51.214;6.768;2024-02-28T06:35:37;101937.53;;;2.11;100.00
4972;BME280;2501;51.214;6.768;2024-02-28T06:38:05;101939.59;;;2.17;100.00
4972;BME280;2501;51.214;6.768;2024-02-28T06:40:34;101948.59;;;2.08;100.00
4972;BME280;2501;51.214;6.768;2024-02-28T06:43:03;101938.41;;;2.12;100.00
4972;BME280;2501;51.214;6.768;2024-02-28T06:45:35;101952.16;;;2.10;100.00
4972;BME280;2501;51.214;6.768;2024-02-28T06:48:06;101956.72;;;2.00;100.00
4972;BME280;2501;51.214;6.768;2024-02-28T06:50:35;101956.44;;;2.10;100.00
4972;BME280;2501;51.214;6.768;2024-02-28T06:53:04;101956.63;;;2.13;100.00
4972;BME280;2501;51.214;6.768;2024-02-28T06:55:33;101953.59;;;2.05;100.00
4972;BME280;2501;51.214;6.768;2024-02-28T06:58:02;101952.44;;;2.15;100.00
4972;BME280;2501;51.214;6.768;2024-02-28T07:00:30;101956.72;;;2.15;100.00
4972;BME280;2501;51.214;6.768;2024-02-28T07:03:01;101963.69;;;2.16;100.00
4972;BME280;2501;51.214;6.768;2024-02-28T07:05:30;101964.06;;;2.22;100.00
4972;BME280;2501;51.214;6.768;2024-02-28T07:07:59;101975.34;;;2.09;100.00
4972;BME280;2501;51.214;6.768;2024-02-28T07:10:27;101972.72;;;2.07;100.00
4972;BME280;2501;51.214;6.768;2024-02-28T07:12:56;101980.63;;;2.25;100.00
4972;BME280;2501;51.214;6.768;2024-02-28T07:15:24;101988.09;;;1.91;100.00
4972;BME280;2501;51.214;6.768;2024-02-28T07:17:53;101983.75;;;1.90;100.00
4972;BME280;2501;51.214;6.768;2024-02-28T07:20:24;101987.47;;;1.95;100.00
4972;BME280;2501;51.214;6.768;2024-02-28T07:22:52;101987.88;;;2.16;100.00
4972;BME280;2501;51.214;6.768;2024-02-28T07:25:21;101986.97;;;2.01;100.00
4972;BME280;2501;51.214;6.768;2024-02-28T07:27:50;101988.66;;;2.00;100.00
4972;BME280;2501;51.214;6.768;2024-02-28T07:30:18;101992.31;;;2.04;100.00
4972;BME280;2501;51.214;6.768;2024-02-28T07:32:47;101983.75;;;2.05;100.00
4972;BME280;2501;51.214;6.768;2024-02-28T07:35:15;101997.38;;;1.88;100.00
4972;BME280;2501;51.214;6.768;2024-02-28T07:37:47;101986.00;;;2.14;100.00
4972;BME280;2501;51.214;6.768;2024-02-28T07:40:15;101994.13;;;2.20;100.00
4972;BME280;2501;51.214;6.768;2024-02-28T07:42:44;101987.34;;;2.22;100.00
4972;BME280;2501;51.214;6.768;2024-02-28T07:45:12;101987.97;;;2.47;100.00
4972;BME280;2501;51.214;6.768;2024-02-28T07:47:41;101993.59;;;2.40;100.00
4972;BME280;2501;51.214;6.768;2024-02-28T07:50:09;101993.84;;;2.44;100.00
4972;BME280;2501;51.214;6.768;2024-02-28T07:52:38;101989.84;;;2.20;100.00
4972;BME280;2501;51.214;6.768;2024-02-28T07:55:09;101986.47;;;2.21;100.00
4972;BME280;2501;51.214;6.768;2024-02-28T07:57:38;101994.75;;;2.30;100.00
4972;BME280;2501;51.214;6.768;2024-02-28T08:00:07;101990.03;;;2.23;100.00
4972;BME280;2501;51.214;6.768;2024-02-28T08:02:37;102001.09;;;2.21;100.00
4972;BME280;2501;51.214;6.768;2024-02-28T08:05:06;102008.38;;;2.13;100.00
4972;BME280;2501;51.214;6.768;2024-02-28T08:07:35;102012.13;;;2.03;100.00
4972;BME280;2501;51.214;6.768;2024-02-28T08:10:05;102006.09;;;2.18;100.00
4972;BME280;2501;51.214;6.768;2024-02-28T08:12:38;102010.66;;;2.22;100.00
4972;BME280;2501;51.214;6.768;2024-02-28T08:15:07;102012.47;;;2.09;100.00
4972;BME280;2501;51.214;6.768;2024-02-28T08:17:39;102016.25;;;2.29;100.00
4972;BME280;2501;51.214;6.768;2024-02-28T08:20:08;102016.44;;;2.32;100.00
4972;BME280;2501;51.214;6.768;2024-02-28T08:22:36;102014.56;;;2.30;100.00
4972;BME280;2501;51.214;6.768;2024-02-28T08:25:05;102013.75;;;2.45;100.00
4972;BME280;2501;51.214;6.768;2024-02-28T08:27:39;102015.66;;;2.33;100.00
4972;BME280;2501;51.214;6.768;2024-02-28T08:30:08;102015.56;;;2.32;100.00
4972;BME280;2501;51.214;6.768;2024-02-28T08:32:36;102009.13;;;2.55;100.00
4972;BME280;2501;51.214;6.768;2024-02-28T08:35:09;102020.59;;;3.35;100.00
4972;BME280;2501;51.214;6.768;2024-02-28T08:37:38;102015.97;;;3.29;100.00
4972;BME280;2501;51.214;6.768;2024-02-28T08:40:07;102021.00;;;3.26;100.00
4972;BME280;2501;51.214;6.768;2024-02-28T08:42:39;102022.44;;;2.75;100.00
4972;BME280;2501;51.214;6.768;2024-02-28T08:45:09;102015.91;;;2.67;100.00
4972;BME280;2501;51.214;6.768;2024-02-28T08:47:37;102019.41;;;2.68;100.00
4972;BME280;2501;51.214;6.768;2024-02-28T08:50:07;102025.75;;;2.58;100.00
4972;BME280;2501;51.214;6.768;2024-02-28T08:52:36;102030.31;;;2.77;100.00
4972;BME280;2501;51.214;6.768;2024-02-28T08:55:05;102038.25;;;2.51;100.00
4972;BME280;2501;51.214;6.768;2024-02-28T08:57:33;102044.56;;;2.85;100.00
4972;BME280;2501;51.214;6.768;2024-02-28T09:00:06;102042.50;;;3.09;100.00
4972;BME280;2501;51.214;6.768;2024-02-28T09:02:35;102052.59;;;3.66;100.00
4972;BME280;2501;51.214;6.768;2024-02-28T09:05:05;102053.41;;;3.03;100.00
4972;BME280;2501;51.214;6.768;2024-02-28T09:07:34;102050.94;;;3.21;100.00
4972;BME280;2501;51.214;6.768;2024-02-28T09:10:03;102049.56;;;2.82;100.00
4972;BME280;2501;51.214;6.768;2024-02-28T09:12:33;102049.84;;;2.87;100.00
4972;BME280;2501;51.214;6.768;2024-02-28T09:15:07;102053.25;;;2.86;100.00
4972;BME280;2501;51.214;6.768;2024-02-28T09:17:38;102045.44;;;3.46;100.00
4972;BME280;2501;51.214;6.768;2024-02-28T09:20:07;102032.84;;;3.37;100.00
4972;BME280;2501;51.214;6.768;2024-02-28T09:22:36;102031.72;;;3.48;100.00
4972;BME280;2501;51.214;6.768;2024-02-28T09:25:06;102034.41;;;3.19;100.00
4972;BME280;2501;51.214;6.768;2024-02-28T09:27:35;102031.69;;;3.32;100.00
4972;BME280;2501;51.214;6.768;2024-02-28T09:30:08;102034.50;;;3.52;100.00
4972;BME280;2501;51.214;6.768;2024-02-28T09:32:39;102035.09;;;3.78;100.00
4972;BME280;2501;51.214;6.768;2024-02-28T09:35:08;102039.06;;;3.88;100.00
4972;BME280;2501;51.214;6.768;2024-02-28T09:37:38;102043.28;;;3.70;100.00
4972;BME280;2501;51.214;6.768;2024-02-28T09:40:09;102039.63;;;3.82;100.00
4972;BME280;2501;51.214;6.768;2024-02-28T09:42:39;102040.84;;;3.73;100.00
4972;BME280;2501;51.214;6.768;2024-02-28T09:45:13;102027.50;;;3.98;100.00
4972;BME280;2501;51.214;6.768;2024-02-28T09:47:43;102032.25;;;3.58;100.00
4972;BME280;2501;51.214;6.768;2024-02-28T09:50:12;102032.66;;;3.81;100.00
4972;BME280;2501;51.214;6.768;2024-02-28T09:52:38;102029.09;;;3.96;100.00
4972;BME280;2501;51.214;6.768;2024-02-28T09:55:07;102016.44;;;3.85;100.00
4972;BME280;2501;51.214;6.768;2024-02-28T09:57:36;102014.38;;;3.64;100.00
4972;BME280;2501;51.214;6.768;2024-02-28T10:00:07;102015.06;;;3.92;100.00
4972;BME280;2501;51.214;6.768;2024-02-28T10:02:41;102011.84;;;3.80;100.00
4972;BME280;2501;51.214;6.768;2024-02-28T10:05:11;102003.78;;;3.92;100.00
4972;BME280;2501;51.214;6.768;2024-02-28T10:07:39;102004.91;;;4.13;100.00
4972;BME280;2501;51.214;6.768;2024-02-28T10:10:08;102004.66;;;4.08;100.00
4972;BME280;2501;51.214;6.768;2024-02-28T10:12:40;102005.13;;;4.17;100.00
4972;BME280;2501;51.214;6.768;2024-02-28T10:15:10;102007.38;;;4.44;100.00
4972;BME280;2501;51.214;6.768;2024-02-28T10:17:41;102009.19;;;4.63;100.00
4972;BME280;2501;51.214;6.768;2024-02-28T10:20:11;102007.84;;;4.37;100.00
4972;BME280;2501;51.214;6.768;2024-02-28T10:22:39;102014.72;;;4.18;100.00
4972;BME280;2501;51.214;6.768;2024-02-28T10:25:08;102014.94;;;4.23;100.00
4972;BME280;2501;51.214;6.768;2024-02-28T10:27:36;102011.66;;;4.43;100.00
4972;BME280;2501;51.214;6.768;2024-02-28T10:30:06;102012.59;;;4.62;100.00
4972;BME280;2501;51.214;6.768;2024-02-28T10:32:36;102010.44;;;5.06;100.00
4972;BME280;2501;51.214;6.768;2024-02-28T10:35:08;102016.53;;;4.71;100.00
4972;BME280;2501;51.214;6.768;2024-02-28T10:37:36;102015.06;;;4.94;100.00
4972;BME280;2501;51.214;6.768;2024-02-28T10:40:07;102018.06;;;5.02;100.00
4972;BME280;2501;51.214;6.768;2024-02-28T10:42:36;102012.91;;;4.85;100.00
4972;BME280;2501;51.214;6.768;2024-02-28T10:45:07;102015.72;;;5.08;100.00
4972;BME280;2501;51.214;6.768;2024-02-28T10:47:37;102022.19;;;4.80;100.00
4972;BME280;2501;51.214;6.768;2024-02-28T10:50:09;102018.72;;;4.98;100.00
4972;BME280;2501;51.214;6.768;2024-02-28T10:52:44;102025.88;;;5.21;100.00
4972;BME280;2501;51.214;6.768;2024-02-28T10:55:20;102021.84;;;5.45;100.00
4972;BME280;2501;51.214;6.768;2024-02-28T10:58:01;102018.72;;;4.98;100.00
4972;BME280;2501;51.214;6.768;2024-02-28T11:00:31;102017.97;;;5.00;100.00
4972;BME280;2501;51.214;6.768;2024-02-28T11:03:01;102023.44;;;5.24;100.00
4972;BME280;2501;51.214;6.768;2024-02-28T11:05:41;102029.56;;;5.62;100.00
4972;BME280;2501;51.214;6.768;2024-02-28T11:08:19;102021.34;;;5.52;100.00
4972;BME280;2501;51.214;6.768;2024-02-28T11:10:57;102020.72;;;5.77;100.00
4972;BME280;2501;51.214;6.768;2024-02-28T11:13:27;102021.56;;;5.76;100.00
4972;BME280;2501;51.214;6.768;2024-02-28T11:16:07;102016.53;;;5.62;100.00
4972;BME280;2501;51.214;6.768;2024-02-28T11:18:35;102005.53;;;5.86;100.00
4972;BME280;2501;51.214;6.768;2024-02-28T11:21:15;102011.38;;;6.19;100.00
4972;BME280;2501;51.214;6.768;2024-02-28T11:23:46;101995.41;;;6.52;100.00
4972;BME280;2501;51.214;6.768;2024-02-28T11:26:15;101994.63;;;6.34;100.00
4972;BME280;2501;51.214;6.768;2024-02-28T11:28:43;101991.84;;;6.10;100.00
4972;BME280;2501;51.214;6.768;2024-02-28T11:31:12;101982.75;;;6.00;100.00
4972;BME280;2501;51.214;6.768;2024-02-28T11:33:40;101983.06;;;6.08;100.00
4972;BME280;2501;51.214;6.768;2024-02-28T11:36:12;101975.09;;;6.24;100.00
4972;BME280;2501;51.214;6.768;2024-02-28T11:38:41;101970.16;;;6.51;100.00
4972;BME280;2501;51.214;6.768;2024-02-28T11:41:10;101967.22;;;6.43;100.00
4972;BME280;2501;51.214;6.768;2024-02-28T11:43:38;101960.53;;;6.29;100.00
4972;BME280;2501;51.214;6.768;2024-02-28T11:46:08;101956.91;;;6.25;100.00
4972;BME280;2501;51.214;6.768;2024-02-28T11:48:39;101952.94;;;6.75;100.00
4972;BME280;2501;51.214;6.768;2024-02-28T11:51:11;101952.28;;;6.60;100.00
4972;BME280;2501;51.214;6.768;2024-02-28T11:53:39;101948.41;;;6.50;100.00
4972;BME280;2501;51.214;6.768;2024-02-28T11:56:08;101951.72;;;6.46;100.00
4972;BME280;2501;51.214;6.768;2024-02-28T11:58:36;101946.13;;;7.01;100.00
4972;BME280;2501;51.214;6.768;2024-02-28T12:01:04;101948.38;;;7.14;100.00
4972;BME280;2501;51.214;6.768;2024-02-28T12:03:30;101941.38;;;7.13;100.00
4972;BME280;2501;51.214;6.768;2024-02-28T12:05:59;101933.25;;;7.28;100.00
4972;BME280;2501;51.214;6.768;2024-02-28T12:08:30;101924.69;;;7.32;100.00
4972;BME280;2501;51.214;6.768;2024-02-28T12:11:06;101926.50;;;7.11;100.00
4972;BME280;2501;51.214;6.768;2024-02-28T12:13:37;101931.19;;;6.97;100.00
4972;BME280;2501;51.214;6.768;2024-02-28T12:16:05;101930.50;;;6.80;100.00
4972;BME280;2501;51.214;6.768;2024-02-28T12:18:35;101921.22;;;7.31;100.00
4972;BME280;2501;51.214;6.768;2024-02-28T12:21:04;101915.72;;;7.48;100.00
4972;BME280;2501;51.214;6.768;2024-02-28T12:23:35;101923.94;;;7.12;100.00
4972;BME280;2501;51.214;6.768;2024-02-28T12:26:04;101913.63;;;7.38;100.00
4972;BME280;2501;51.214;6.768;2024-02-28T12:28:32;101910.69;;;7.76;100.00
4972;BME280;2501;51.214;6.768;2024-02-28T12:31:01;101914.19;;;8.02;100.00
4972;BME280;2501;51.214;6.768;2024-02-28T12:33:30;101905.81;;;7.87;100.00
4972;BME280;2501;51.214;6.768;2024-02-28T12:35:59;101893.34;;;7.78;100.00
4972;BME280;2501;51.214;6.768;2024-02-28T12:38:28;101898.38;;;8.23;100.00
4972;BME280;2501;51.214;6.768;2024-02-28T12:41:00;101884.16;;;8.67;100.00
4972;BME280;2501;51.214;6.768;2024-02-28T12:43:30;101881.28;;;8.32;100.00
4972;BME280;2501;51.214;6.768;2024-02-28T12:45:59;101877.41;;;8.21;100.00
4972;BME280;2501;51.214;6.768;2024-02-28T12:48:28;101880.91;;;8.47;100.00
4972;BME280;2501;51.214;6.768;2024-02-28T12:50:57;101870.22;;;8.68;100.00
4972;BME280;2501;51.214;6.768;2024-02-28T12:53:26;101865.41;;;8.80;100.00
4972;BME280;2501;51.214;6.768;2024-02-28T12:55:54;101861.91;;;8.53;100.00
4972;BME280;2501;51.214;6.768;2024-02-28T12:58:25;101868.13;;;8.04;100.00
4972;BME280;2501;51.214;6.768;2024-02-28T13:00:54;101868.22;;;8.07;100.00
4972;BME280;2501;51.214;6.768;2024-02-28T13:03:22;101866.66;;;8.37;100.00
4972;BME280;2501;51.214;6.768;2024-02-28T13:05:51;101859.28;;;8.80;100.00
4972;BME280;2501;51.214;6.768;2024-02-28T13:08:19;101858.16;;;9.00;100.00
4972;BME280;2501;51.214;6.768;2024-02-28T13:10:48;101861.22;;;8.58;100.00
4972;BME280;2501;51.214;6.768;2024-02-28T13:13:16;101857.59;;;8.82;100.00
4972;BME280;2501;51.214;6.768;2024-02-28T13:15:47;101846.84;;;8.72;100.00
4972;BME280;2501;51.214;6.768;2024-02-28T13:18:16;101853.84;;;8.45;100.00
4972;BME280;2501;51.214;6.768;2024-02-28T13:20:44;101850.88;;;8.61;100.00